createdAt,value
2018-12-08T00:00:37.966Z,10.10
2018-12-08T00:03:07.947Z,10.10
2018-12-08T00:05:36.826Z,10.00
2018-12-08T00:08:05.629Z,10.00
2018-12-08T00:10:34.807Z,9.90
2018-12-08T00:13:04.389Z,9.90
2018-12-08T00:15:33.208Z,9.80
2018-12-08T00:18:02.657Z,9.80
2018-12-08T00:20:31.393Z,9.70
2018-12-08T00:23:00.105Z,9.50
2018-12-08T00:25:28.919Z,9.40
2018-12-08T00:27:57.691Z,9.30
2018-12-08T00:30:37.544Z,9.20
2018-12-08T00:33:08.001Z,9.10
2018-12-08T00:35:37.087Z,9.10
2018-12-08T00:38:06.261Z,9.10
2018-12-08T00:40:35.120Z,9.10
2018-12-08T00:43:04.450Z,9.10
2018-12-08T00:45:33.259Z,9.00
2018-12-08T00:48:02.244Z,9.10
2018-12-08T00:50:31.101Z,9.20
2018-12-08T00:52:59.919Z,9.30
2018-12-08T00:55:28.748Z,9.20
2018-12-08T00:57:58.001Z,9.20
2018-12-08T01:00:27.093Z,9.10
2018-12-08T01:02:56.530Z,9.10
2018-12-08T01:05:25.270Z,9.00
2018-12-08T01:07:54.046Z,9.00
2018-12-08T01:10:23.002Z,8.90
2018-12-08T01:12:52.342Z,8.90
2018-12-08T01:15:21.362Z,8.80
2018-12-08T01:17:50.286Z,8.80
2018-12-08T01:20:19.252Z,8.60
2018-12-08T01:22:48.074Z,8.70
2018-12-08T01:25:17.118Z,8.60
2018-12-08T01:27:45.955Z,8.50
2018-12-08T01:30:14.679Z,8.60
2018-12-08T01:32:43.349Z,8.50
2018-12-08T01:35:12.454Z,8.50
2018-12-08T01:37:41.243Z,8.50
2018-12-08T01:40:09.999Z,8.40
2018-12-08T01:42:38.740Z,8.40
2018-12-08T01:45:07.703Z,8.40
2018-12-08T01:47:36.413Z,8.50
2018-12-08T01:50:05.914Z,8.50
2018-12-08T01:52:34.926Z,8.50
2018-12-08T01:55:04.048Z,8.40
2018-12-08T01:57:33.076Z,8.50
2018-12-08T02:00:02.038Z,8.40
2018-12-08T02:02:31.063Z,8.40
2018-12-08T02:04:59.933Z,8.40
2018-12-08T02:07:28.786Z,8.40
2018-12-08T02:09:57.823Z,8.30
2018-12-08T02:12:26.619Z,8.20
2018-12-08T02:14:55.458Z,8.20
2018-12-08T02:17:24.387Z,8.20
2018-12-08T02:19:53.168Z,8.20
2018-12-08T02:22:21.965Z,8.30
2018-12-08T02:24:50.882Z,8.40
2018-12-08T02:27:19.707Z,8.30
2018-12-08T02:29:48.670Z,8.40
2018-12-08T02:32:17.602Z,8.20
2018-12-08T02:34:46.545Z,8.20
2018-12-08T02:37:15.349Z,8.10
2018-12-08T02:39:44.146Z,8.10
2018-12-08T02:42:13.027Z,8.00
2018-12-08T02:44:41.835Z,7.90
2018-12-08T02:47:10.521Z,7.80
2018-12-08T02:49:39.330Z,7.70
2018-12-08T02:52:08.181Z,7.70
2018-12-08T02:54:36.971Z,7.70
2018-12-08T02:57:05.876Z,7.60
2018-12-08T02:59:34.682Z,7.60
2018-12-08T03:02:04.410Z,7.60
2018-12-08T03:04:33.300Z,7.70
2018-12-08T03:07:02.181Z,7.80
2018-12-08T03:09:30.945Z,7.80
2018-12-08T03:11:59.691Z,7.90
2018-12-08T03:14:28.481Z,7.90
2018-12-08T03:16:57.295Z,7.90
2018-12-08T03:19:26.232Z,7.90
2018-12-08T03:21:55.443Z,7.80
2018-12-08T03:27:01.470Z,7.80
2018-12-08T03:29:30.260Z,7.90
2018-12-08T03:31:59.124Z,8.00
2018-12-08T03:34:27.913Z,8.00
2018-12-08T03:36:56.772Z,8.00
2018-12-08T03:39:25.486Z,8.00
2018-12-08T03:41:54.291Z,7.90
2018-12-08T03:44:23.089Z,7.80
2018-12-08T03:46:51.778Z,7.80
2018-12-08T03:49:20.504Z,7.90
2018-12-08T03:51:49.252Z,7.80
2018-12-08T03:54:18.021Z,7.80
2018-12-08T03:56:46.804Z,7.80
2018-12-08T03:59:16.715Z,7.80
2018-12-08T04:01:45.534Z,7.60
2018-12-08T04:04:14.618Z,7.50
2018-12-08T04:06:43.561Z,7.50
2018-12-08T04:09:12.719Z,7.40
2018-12-08T04:11:41.586Z,7.30
2018-12-08T04:14:10.409Z,7.30
2018-12-08T04:16:39.325Z,7.20
2018-12-08T04:19:08.261Z,7.20
2018-12-08T04:21:36.949Z,7.10
2018-12-08T04:24:05.602Z,6.90
2018-12-08T04:26:34.341Z,6.90
2018-12-08T04:29:03.632Z,7.00
2018-12-08T04:31:32.330Z,6.90
2018-12-08T04:34:01.421Z,6.80
2018-12-08T04:36:30.203Z,6.70
2018-12-08T04:38:58.974Z,6.70
2018-12-08T04:41:27.750Z,6.70
2018-12-08T04:43:56.691Z,6.60
2018-12-08T04:46:25.667Z,6.70
2018-12-08T04:48:54.648Z,6.60
2018-12-08T04:51:23.335Z,6.50
2018-12-08T04:53:52.006Z,6.50
2018-12-08T04:56:21.125Z,6.50
2018-12-08T04:58:49.974Z,6.50
2018-12-08T05:01:18.885Z,6.60
2018-12-08T05:03:47.662Z,6.50
2018-12-08T05:06:16.591Z,6.50
2018-12-08T05:08:45.516Z,6.50
2018-12-08T05:11:14.285Z,6.40
2018-12-08T05:13:43.746Z,6.30
2018-12-08T05:16:12.678Z,6.30
2018-12-08T05:18:41.744Z,6.30
2018-12-08T05:21:10.596Z,6.30
2018-12-08T05:23:41.300Z,6.30
2018-12-08T05:26:10.314Z,6.20
2018-12-08T05:28:39.762Z,6.20
2018-12-08T05:31:08.644Z,6.20
2018-12-08T05:33:37.535Z,6.20
2018-12-08T05:36:06.468Z,6.20
2018-12-08T05:38:35.229Z,6.20
2018-12-08T05:41:03.967Z,6.20
2018-12-08T05:43:33.470Z,6.30
2018-12-08T05:46:02.220Z,6.30
2018-12-08T05:48:30.887Z,6.30
2018-12-08T05:50:59.577Z,6.40
2018-12-08T05:53:30.331Z,6.40
2018-12-08T05:55:59.099Z,6.50
2018-12-08T05:58:27.887Z,6.40
2018-12-08T06:00:56.558Z,6.50
2018-12-08T06:03:27.841Z,6.50
2018-12-08T06:05:56.695Z,6.60
2018-12-08T06:08:27.347Z,6.60
2018-12-08T06:10:56.132Z,6.50
2018-12-08T06:13:27.598Z,6.50
2018-12-08T06:15:56.484Z,6.50
2018-12-08T06:18:25.164Z,6.40
2018-12-08T06:20:53.925Z,6.30
2018-12-08T06:23:23.115Z,6.20
2018-12-08T06:25:51.786Z,6.30
2018-12-08T06:28:24.969Z,6.30
2018-12-08T06:30:54.010Z,6.20
2018-12-08T06:33:23.899Z,6.10
2018-12-08T06:35:52.662Z,6.10
2018-12-08T06:38:21.625Z,6.10
2018-12-08T06:40:50.274Z,6.10
2018-12-08T06:43:19.247Z,6.10
2018-12-08T06:45:47.988Z,6.10
2018-12-08T06:48:17.689Z,6.00
2018-12-08T06:50:46.433Z,6.00
2018-12-08T06:53:15.982Z,6.00
2018-12-08T06:55:44.695Z,6.10
2018-12-08T06:58:13.541Z,6.10
2018-12-08T07:00:42.286Z,6.20
2018-12-08T07:03:12.146Z,6.20
2018-12-08T07:05:40.891Z,6.20
2018-12-08T07:08:10.447Z,6.10
2018-12-08T07:10:39.154Z,6.20
2018-12-08T07:13:08.755Z,6.20
2018-12-08T07:15:37.503Z,6.20
2018-12-08T07:18:07.297Z,6.20
2018-12-08T07:20:36.118Z,6.30
2018-12-08T07:23:05.631Z,6.30
2018-12-08T07:25:34.312Z,6.40
2018-12-08T07:28:03.703Z,6.40
2018-12-08T07:30:32.528Z,6.40
2018-12-08T07:33:01.276Z,6.50
2018-12-08T07:35:30.073Z,6.60
2018-12-08T07:37:58.756Z,6.80
2018-12-08T07:40:27.635Z,6.90
2018-12-08T07:42:56.359Z,7.00
2018-12-08T07:45:25.088Z,7.10
2018-12-08T07:47:53.810Z,7.10
2018-12-08T07:50:22.848Z,7.30
2018-12-08T07:52:51.695Z,7.50
2018-12-08T07:55:20.689Z,7.50
2018-12-08T07:57:49.679Z,7.50
2018-12-08T08:00:18.480Z,7.70
2018-12-08T08:02:47.403Z,7.90
2018-12-08T08:05:16.034Z,8.40
2018-12-08T08:07:44.874Z,8.70
2018-12-08T08:10:13.856Z,8.90
2018-12-08T08:12:43.439Z,9.00
2018-12-08T08:15:12.661Z,9.10
2018-12-08T08:17:41.658Z,9.10
2018-12-08T08:20:11.550Z,9.00
2018-12-08T08:22:40.546Z,9.00
2018-12-08T08:25:11.216Z,9.00
2018-12-08T08:27:40.183Z,9.10
2018-12-08T08:30:11.760Z,9.10
2018-12-08T08:32:41.090Z,9.00
2018-12-08T08:35:11.154Z,9.20
2018-12-08T08:37:39.963Z,9.40
2018-12-08T08:40:10.688Z,9.50
2018-12-08T08:42:39.442Z,9.40
2018-12-08T08:45:09.516Z,9.60
2018-12-08T08:47:38.392Z,9.70
2018-12-08T08:50:09.829Z,9.70
2018-12-08T08:52:38.759Z,9.70
2018-12-08T08:55:08.280Z,9.70
2018-12-08T08:57:37.881Z,10.10
2018-12-08T09:00:08.978Z,10.60
2018-12-08T09:02:37.864Z,10.80
2018-12-08T09:05:07.564Z,11.60
2018-12-08T09:07:36.463Z,12.70
2018-12-08T09:10:08.868Z,13.50
2018-12-08T09:12:37.748Z,14.10
2018-12-08T09:15:07.834Z,14.40
2018-12-08T09:17:36.600Z,14.00
2018-12-08T09:20:07.805Z,13.80
2018-12-08T09:22:36.685Z,13.30
2018-12-08T09:25:06.373Z,13.00
2018-12-08T09:27:35.078Z,12.80
2018-12-08T09:30:04.479Z,12.60
2018-12-08T09:32:33.356Z,12.40
2018-12-08T09:35:02.912Z,12.10
2018-12-08T09:37:31.887Z,11.80
2018-12-08T09:40:01.263Z,12.30
2018-12-08T09:42:30.189Z,13.10
2018-12-08T09:44:59.145Z,13.80
2018-12-08T09:47:28.157Z,14.60
2018-12-08T09:49:57.336Z,14.70
2018-12-08T09:52:26.094Z,15.40
2018-12-08T09:54:54.916Z,16.10
2018-12-08T09:57:24.554Z,16.30
2018-12-08T09:59:53.723Z,16.30
2018-12-08T10:02:22.929Z,16.10
2018-12-08T10:04:52.746Z,16.50
2018-12-08T10:07:21.808Z,16.70
2018-12-08T10:09:50.491Z,16.40
2018-12-08T10:12:19.303Z,15.70
2018-12-08T10:14:48.186Z,15.60
2018-12-08T10:17:18.299Z,15.20
2018-12-08T10:19:47.318Z,14.70
2018-12-08T10:22:16.385Z,14.40
2018-12-08T10:24:45.084Z,14.00
2018-12-08T10:27:14.586Z,13.60
2018-12-08T10:29:43.476Z,13.30
2018-12-08T10:32:12.251Z,12.90
2018-12-08T10:34:40.983Z,12.40
2018-12-08T10:37:11.948Z,12.20
2018-12-08T10:39:40.910Z,12.00
2018-12-08T10:42:09.875Z,12.10
2018-12-08T10:44:38.660Z,12.10
2018-12-08T10:47:07.458Z,12.00
2018-12-08T10:49:36.306Z,12.40
2018-12-08T10:52:05.264Z,12.50
2018-12-08T10:54:34.180Z,12.60
2018-12-08T10:57:03.211Z,13.00
2018-12-08T10:59:32.022Z,13.90
2018-12-08T11:02:03.486Z,14.00
2018-12-08T11:04:32.432Z,13.80
2018-12-08T11:07:01.301Z,13.30
2018-12-08T11:09:30.125Z,13.10
2018-12-08T11:11:58.864Z,13.00
2018-12-08T11:14:27.819Z,13.20
2018-12-08T11:16:56.596Z,13.20
2018-12-08T11:19:25.394Z,12.90
2018-12-08T11:22:09.519Z,12.60
2018-12-08T11:24:38.566Z,12.20
2018-12-08T11:27:07.527Z,11.90
2018-12-08T11:29:36.449Z,11.60
2018-12-08T11:32:05.351Z,11.20
2018-12-08T11:34:34.281Z,11.00
2018-12-08T11:37:03.303Z,11.00
2018-12-08T11:39:32.085Z,10.80
2018-12-08T11:42:02.221Z,10.80
2018-12-08T11:44:31.395Z,10.70
2018-12-08T11:47:00.571Z,10.60
2018-12-08T11:49:30.696Z,10.70
2018-12-08T11:52:01.372Z,10.80
2018-12-08T11:54:31.031Z,10.80
2018-12-08T11:57:00.060Z,10.90
2018-12-08T11:59:28.930Z,10.90
2018-12-08T12:01:57.984Z,10.80
2018-12-08T12:04:27.037Z,10.70
2018-12-08T12:06:55.935Z,10.70
2018-12-08T12:09:25.060Z,10.70
2018-12-08T12:11:53.924Z,10.50
2018-12-08T12:14:40.534Z,10.60
2018-12-08T12:17:09.511Z,10.60
2018-12-08T12:19:38.788Z,10.70
2018-12-08T12:22:08.926Z,10.70
2018-12-08T12:24:37.955Z,10.60
2018-12-08T12:27:06.883Z,10.70
2018-12-08T12:29:37.598Z,10.60
2018-12-08T12:32:07.652Z,10.70
2018-12-08T12:34:36.541Z,10.60
2018-12-08T12:37:05.630Z,10.50
2018-12-08T12:39:34.475Z,10.40
2018-12-08T12:42:04.533Z,10.40
2018-12-08T12:44:33.917Z,10.30
2018-12-08T12:47:02.955Z,10.30
2018-12-08T12:49:32.043Z,10.30
2018-12-08T12:52:01.251Z,10.30
2018-12-08T12:54:30.281Z,10.30
2018-12-08T12:56:59.278Z,10.30
2018-12-08T12:59:28.481Z,10.30
2018-12-08T13:01:57.572Z,10.20
2018-12-08T13:04:26.709Z,10.30
2018-12-08T13:06:55.693Z,10.30
2018-12-08T13:09:24.819Z,10.30
2018-12-08T13:11:55.637Z,10.20
2018-12-08T13:14:24.745Z,10.30
2018-12-08T13:16:53.748Z,10.40
2018-12-08T13:19:22.742Z,10.30
2018-12-08T13:21:51.679Z,10.20
2018-12-08T13:24:20.844Z,10.20
2018-12-08T13:26:50.122Z,10.20
2018-12-08T13:29:19.045Z,10.40
2018-12-08T13:31:48.494Z,10.40
2018-12-08T13:34:27.451Z,10.30
2018-12-08T13:36:57.747Z,10.20
2018-12-08T13:39:26.977Z,10.10
2018-12-08T13:41:56.090Z,10.00
2018-12-08T13:44:40.911Z,9.90
2018-12-08T13:47:10.531Z,9.90
2018-12-08T13:49:39.474Z,9.90
2018-12-08T13:52:08.735Z,9.90
2018-12-08T13:54:46.842Z,9.70
2018-12-08T13:57:16.562Z,9.70
2018-12-08T13:59:55.418Z,9.80
2018-12-08T14:02:24.865Z,9.80
2018-12-08T14:04:53.771Z,9.80
2018-12-08T14:07:22.758Z,9.70
2018-12-08T14:09:51.787Z,9.70
2018-12-08T14:12:21.027Z,9.70
2018-12-08T14:14:50.190Z,9.70
2018-12-08T14:17:19.143Z,9.60
2018-12-08T14:19:48.212Z,9.70
2018-12-08T14:22:17.211Z,9.70
2018-12-08T14:24:46.461Z,9.60
2018-12-08T14:27:15.423Z,9.60
2018-12-08T14:29:45.071Z,9.50
2018-12-08T14:32:14.104Z,9.50
2018-12-08T14:34:43.097Z,9.50
2018-12-08T14:37:12.013Z,9.40
2018-12-08T14:39:40.978Z,9.30
2018-12-08T14:42:10.026Z,9.10
2018-12-08T14:44:39.423Z,9.20
2018-12-08T14:47:08.621Z,9.10
2018-12-08T14:49:41.193Z,9.20
2018-12-08T14:52:10.012Z,8.90
2018-12-08T14:54:38.782Z,9.10
2018-12-08T14:57:08.468Z,9.10
2018-12-08T14:59:37.702Z,9.00
2018-12-08T15:02:06.785Z,9.00
2018-12-08T15:04:35.745Z,8.90
2018-12-08T15:07:05.050Z,8.90
2018-12-08T15:09:34.428Z,9.00
2018-12-08T15:12:03.958Z,9.00
2018-12-08T15:14:33.343Z,8.90
2018-12-08T15:17:02.657Z,8.90
2018-12-08T15:19:31.688Z,8.80
2018-12-08T15:22:00.722Z,8.50
2018-12-08T15:24:30.080Z,8.60
2018-12-08T15:26:59.308Z,8.60
2018-12-08T15:29:28.766Z,8.60
2018-12-08T15:31:58.433Z,8.60
2018-12-08T15:34:27.695Z,8.60
2018-12-08T15:36:56.849Z,8.60
2018-12-08T15:39:25.976Z,8.60
2018-12-08T15:41:55.148Z,8.40
2018-12-08T15:44:24.176Z,8.50
2018-12-08T15:46:53.490Z,8.40
2018-12-08T15:49:22.793Z,8.50
2018-12-08T15:51:57.156Z,8.40
2018-12-08T15:54:26.474Z,8.50
2018-12-08T15:56:55.456Z,8.40
2018-12-08T15:59:24.404Z,8.40
2018-12-08T16:01:53.721Z,8.40
2018-12-08T16:04:23.196Z,8.30
2018-12-08T16:06:51.931Z,8.30
2018-12-08T16:09:20.831Z,8.20
2018-12-08T16:11:49.754Z,8.40
2018-12-08T16:14:18.667Z,8.40
2018-12-08T16:16:47.791Z,8.30
2018-12-08T16:19:16.874Z,8.40
2018-12-08T16:21:46.032Z,8.40
2018-12-08T16:24:15.007Z,8.50
2018-12-08T16:26:43.933Z,8.40
2018-12-08T16:29:13.002Z,8.40
2018-12-08T16:31:42.241Z,8.40
2018-12-08T16:34:11.565Z,8.40
2018-12-08T16:36:41.065Z,8.40
2018-12-08T16:39:10.584Z,8.40
2018-12-08T16:41:40.651Z,8.50
2018-12-08T16:44:09.936Z,8.50
2018-12-08T16:46:39.098Z,8.50
2018-12-08T16:49:08.283Z,8.50
2018-12-08T16:51:37.403Z,8.60
2018-12-08T16:54:08.008Z,8.60
2018-12-08T16:56:37.739Z,8.70
2018-12-08T16:59:07.564Z,8.50
2018-12-08T17:01:37.482Z,8.40
2018-12-08T17:04:06.685Z,8.60
2018-12-08T17:06:35.815Z,8.40
2018-12-08T17:09:05.912Z,8.60
2018-12-08T17:11:35.159Z,8.60
2018-12-08T17:14:04.397Z,8.70
2018-12-08T17:16:33.924Z,8.70
2018-12-08T17:19:03.078Z,8.60
2018-12-08T17:21:32.092Z,8.60
2018-12-08T17:24:01.314Z,8.70
2018-12-08T17:26:30.787Z,8.60
2018-12-08T17:28:59.579Z,8.50
2018-12-08T17:31:28.309Z,8.50
2018-12-08T17:33:57.244Z,8.50
2018-12-08T17:36:27.484Z,8.50
2018-12-08T17:38:56.573Z,8.50
2018-12-08T17:41:25.958Z,8.50
2018-12-08T17:43:55.881Z,8.50
2018-12-08T17:46:24.994Z,8.50
2018-12-08T17:48:53.963Z,8.50
2018-12-08T17:51:23.193Z,8.50
2018-12-08T17:53:52.415Z,8.50
2018-12-08T17:56:21.473Z,8.50
2018-12-08T17:58:50.818Z,8.60
2018-12-08T18:01:19.899Z,8.60
2018-12-08T18:03:49.861Z,8.60
2018-12-08T18:06:19.019Z,8.50
2018-12-08T18:08:49.425Z,8.60
2018-12-08T18:11:21.010Z,8.60
2018-12-08T18:13:50.883Z,8.60
2018-12-08T18:16:20.184Z,8.60
2018-12-08T18:18:49.466Z,8.60
2018-12-08T18:21:18.956Z,8.60
2018-12-08T18:23:48.846Z,8.60
2018-12-08T18:26:18.167Z,8.70
2018-12-08T18:28:50.771Z,8.60
2018-12-08T18:31:20.619Z,8.60
2018-12-08T18:33:49.696Z,8.60
2018-12-08T18:36:18.691Z,8.60
2018-12-08T18:38:48.177Z,8.70
2018-12-08T18:41:17.249Z,8.70
2018-12-08T18:43:47.054Z,8.80
2018-12-08T18:46:16.546Z,8.80
2018-12-08T18:48:45.606Z,8.90
2018-12-08T18:51:14.969Z,8.90
2018-12-08T18:53:43.842Z,9.00
2018-12-08T18:56:12.751Z,8.90
2018-12-08T18:58:42.168Z,9.00
2018-12-08T19:01:11.877Z,9.00
2018-12-08T19:03:40.866Z,9.00
2018-12-08T19:06:09.636Z,9.00
2018-12-08T19:08:40.431Z,9.00
2018-12-08T19:11:09.691Z,9.00
2018-12-08T19:13:39.979Z,9.00
2018-12-08T19:16:08.944Z,9.00
2018-12-08T19:18:38.467Z,9.10
2018-12-08T19:21:07.233Z,9.10
2018-12-08T19:23:43.623Z,9.10
2018-12-08T19:26:11.249Z,9.10
2018-12-08T19:28:40.301Z,9.00
2018-12-08T19:31:09.294Z,9.00
2018-12-08T19:33:38.263Z,9.10
2018-12-08T19:36:07.201Z,9.10
2018-12-08T19:38:36.275Z,9.10
2018-12-08T19:41:05.674Z,9.10
2018-12-08T19:43:34.878Z,9.20
2018-12-08T19:46:05.364Z,9.20
2018-12-08T19:48:34.158Z,9.20
2018-12-08T19:51:03.107Z,9.20
2018-12-08T19:53:31.962Z,9.30
2018-12-08T19:56:01.488Z,9.10
2018-12-08T19:58:31.101Z,9.20
2018-12-08T20:01:00.158Z,9.20
2018-12-08T20:03:30.308Z,9.10
2018-12-08T20:05:59.079Z,9.30
2018-12-08T20:08:27.790Z,9.20
2018-12-08T20:10:56.724Z,9.20
2018-12-08T20:13:25.935Z,9.20
2018-12-08T20:15:54.846Z,9.30
2018-12-08T20:18:25.254Z,9.20
2018-12-08T20:20:55.009Z,9.10
2018-12-08T20:23:25.723Z,9.10
2018-12-08T20:25:54.536Z,9.10
2018-12-08T20:28:24.495Z,9.00
2018-12-08T20:30:53.292Z,9.00
2018-12-08T20:33:22.690Z,9.00
2018-12-08T20:35:51.853Z,8.90
2018-12-08T20:38:20.983Z,9.00
2018-12-08T20:40:50.627Z,9.00
2018-12-08T20:43:19.878Z,9.00
2018-12-08T20:45:48.811Z,8.90
2018-12-08T20:48:18.722Z,8.80
2018-12-08T20:50:47.543Z,8.80
2018-12-08T20:53:17.388Z,8.80
2018-12-08T20:55:46.664Z,8.80
2018-12-08T20:58:16.566Z,8.80
2018-12-08T21:00:45.658Z,8.80
2018-12-08T21:03:14.989Z,8.80
2018-12-08T21:05:44.497Z,8.90
2018-12-08T21:08:14.452Z,8.90
2018-12-08T21:10:43.446Z,8.90
2018-12-08T21:13:14.888Z,8.80
2018-12-08T21:15:44.375Z,8.90
2018-12-08T21:18:14.054Z,8.80
2018-12-08T21:20:43.229Z,8.80
2018-12-08T21:23:12.888Z,8.90
2018-12-08T21:25:41.842Z,9.00
2018-12-08T21:28:10.807Z,9.00
2018-12-08T21:30:40.261Z,9.00
2018-12-08T21:33:09.660Z,9.10
2018-12-08T21:35:38.525Z,9.20
2018-12-08T21:41:11.928Z,9.20
2018-12-08T21:43:40.820Z,9.20
2018-12-08T21:46:09.586Z,9.10
2018-12-08T21:48:38.322Z,9.00
2018-12-08T21:51:07.375Z,9.00
2018-12-08T21:53:36.281Z,9.00
2018-12-08T21:56:05.170Z,9.00
2018-12-08T21:58:34.059Z,9.10
2018-12-08T22:01:03.093Z,9.10
2018-12-08T22:03:32.828Z,9.10
2018-12-08T22:06:01.665Z,9.20
2018-12-08T22:08:30.634Z,9.30
2018-12-08T22:11:00.080Z,9.30
2018-12-08T22:13:30.440Z,9.30
2018-12-08T22:15:59.583Z,9.40
2018-12-08T22:18:29.102Z,9.40
2018-12-08T22:20:58.695Z,9.30
2018-12-08T22:23:29.488Z,9.40
2018-12-08T22:25:58.506Z,9.40
2018-12-08T22:28:29.790Z,9.40
2018-12-08T22:30:59.234Z,9.40
2018-12-08T22:33:28.634Z,9.50
2018-12-08T22:35:57.731Z,9.40
2018-12-08T22:38:28.443Z,9.40
2018-12-08T22:40:57.377Z,9.20
2018-12-08T22:43:28.163Z,9.20
2018-12-08T22:45:58.862Z,9.20
2018-12-08T22:48:29.260Z,9.10
2018-12-08T22:50:58.774Z,9.30
2018-12-08T22:53:28.131Z,9.30
2018-12-08T22:55:57.006Z,9.30
2018-12-08T22:58:28.582Z,9.30
2018-12-08T23:00:57.886Z,9.30
2018-12-08T23:03:29.346Z,9.30
2018-12-08T23:05:58.484Z,9.30
2018-12-08T23:08:27.383Z,9.20
2018-12-08T23:10:56.451Z,9.10
2018-12-08T23:13:25.516Z,9.10
2018-12-08T23:15:54.579Z,9.00
2018-12-08T23:18:23.481Z,9.00
2018-12-08T23:20:52.425Z,8.90
2018-12-08T23:23:21.272Z,8.80
2018-12-08T23:25:50.337Z,8.90
2018-12-08T23:28:19.745Z,8.80
2018-12-08T23:30:48.502Z,8.80
2018-12-08T23:33:17.369Z,8.80
2018-12-08T23:35:46.302Z,8.90
2018-12-08T23:38:15.912Z,8.90
2018-12-08T23:40:44.999Z,9.00
2018-12-08T23:43:18.137Z,9.10
2018-12-08T23:45:59.699Z,9.20
2018-12-08T23:48:30.023Z,9.20
2018-12-08T23:51:03.842Z,9.30
2018-12-08T23:53:32.731Z,9.20
2018-12-08T23:56:05.078Z,9.20
2018-12-08T23:58:44.466Z,9.10
